Ackley, Iowa
Current Conditions -  °F | °C
As of 8:55 PM on Friday 21 Nov 2014 (Local Time) from KIFA Reporting Station
Overcast Overcast  
Wind Chill: 23°   Ceiling: 1400
Heat Index: 33°   Visibility: 7mi
Dew Point: 26°   Wind: 15mph
Humidity: 76%   Direction: 170°S
Pressure: 30.04"   Gusts: NA
Location:  42.55°N, 93.05°W
Report Text: KIFA 220255Z AUTO 17013KT 7SM OVC014 01/M03 A3004 RMK AO2 T00051032
Loading
Personal Weather Stations






























Interactive Weather Map New forecast layout! Learn more

10-Day Weather Forecast

Advertisements
Track Severe Weather on mobile